Blountstown, Florida
Current Conditions -  °F | °C
As of 11:53 AM on Friday 21 Nov 2014 (Local Time) from KMAI Reporting Station
Light Rain Light Rain  
Wind Chill: 68°   Ceiling: Unl
Heat Index: 68°   Visibility: 10mi
Dew Point: 45°   Wind: 14mph
Humidity: 43%   Direction: 80°E
Pressure: 30.33"   Gusts: NA
Location:  30.44°N, 85.05°W
Report Text: KMAI 211753Z AUTO 08012KT 10SM -RA CLR 20/07 A3033 RMK AO2 RAB19E28B51 SLP269 P0000 60000 T02000072 10200 20022 58017
Loading
Personal Weather Stations






























Interactive Weather Map New forecast layout! Learn more

10-Day Weather Forecast

Advertisements
Track Severe Weather on mobile